createdAt,value
2023-03-08T00:01:38.162Z,1.20
2023-03-08T00:06:39.919Z,1.20
2023-03-08T00:11:41.718Z,1.20
2023-03-08T00:16:43.465Z,1.30
2023-03-08T00:21:45.287Z,1.30
2023-03-08T00:26:47.047Z,1.30
2023-03-08T00:31:48.872Z,1.30
2023-03-08T00:36:50.688Z,1.30
2023-03-08T00:41:52.813Z,1.30
2023-03-08T00:46:54.620Z,1.30
2023-03-08T00:51:56.539Z,1.30
2023-03-08T00:56:58.339Z,1.30
2023-03-08T01:02:00.917Z,1.30
2023-03-08T01:07:02.750Z,1.40
2023-03-08T01:12:04.986Z,1.40
2023-03-08T01:17:06.824Z,1.40
2023-03-08T01:22:08.575Z,1.40
2023-03-08T01:27:10.365Z,1.30
2023-03-08T01:32:12.451Z,1.40
2023-03-08T01:37:14.256Z,1.40
2023-03-08T01:42:17.183Z,1.40
2023-03-08T01:47:27.659Z,1.40
2023-03-08T01:53:02.090Z,1.30
2023-03-08T01:58:04.236Z,1.30
2023-03-08T02:03:11.526Z,1.30
2023-03-08T02:08:13.747Z,1.40
2023-03-08T02:13:20.025Z,1.30
2023-03-08T02:18:22.362Z,1.30
2023-03-08T02:23:25.748Z,1.30
2023-03-08T02:28:28.664Z,1.40
2023-03-08T02:33:32.283Z,1.30
2023-03-08T02:38:34.629Z,1.30
2023-03-08T02:43:36.389Z,1.30
2023-03-08T02:48:38.307Z,1.40
2023-03-08T02:53:40.269Z,1.40
2023-03-08T02:58:42.126Z,1.40
2023-03-08T03:03:43.954Z,1.30
2023-03-08T03:08:47.229Z,1.40
2023-03-08T03:13:58.781Z,1.40
2023-03-08T03:19:05.413Z,1.40
2023-03-08T03:24:07.864Z,1.40
2023-03-08T03:29:18.165Z,1.40
2023-03-08T03:34:23.320Z,1.40
2023-03-08T03:39:26.191Z,1.40
2023-03-08T03:44:31.891Z,1.50
2023-03-08T03:49:34.153Z,1.50
2023-03-08T03:54:36.242Z,1.40
2023-03-08T03:59:38.163Z,1.50
2023-03-08T04:04:40.270Z,1.40
2023-03-08T04:09:43.477Z,1.50
2023-03-08T04:14:49.395Z,1.40
2023-03-08T04:19:52.646Z,1.50
2023-03-08T04:24:56.179Z,1.40
2023-03-08T04:30:10.404Z,1.50
2023-03-08T04:35:12.361Z,1.50
2023-03-08T04:40:16.535Z,1.40
2023-03-08T04:45:27.999Z,1.40
2023-03-08T04:50:33.200Z,1.50
2023-03-08T04:55:37.207Z,1.50
2023-03-08T05:00:39.849Z,1.40
2023-03-08T05:05:53.997Z,1.50
2023-03-08T05:11:00.517Z,1.40
2023-03-08T05:16:07.941Z,1.40
2023-03-08T05:21:16.261Z,1.50
2023-03-08T05:26:19.745Z,1.50
2023-03-08T05:31:22.974Z,1.40
2023-03-08T05:36:27.647Z,1.40
2023-03-08T05:41:32.207Z,1.40
2023-03-08T05:46:38.087Z,1.40
2023-03-08T05:51:41.359Z,1.40
2023-03-08T05:56:43.212Z,1.40
2023-03-08T06:01:57.824Z,1.40
2023-03-08T06:07:12.983Z,1.50
2023-03-08T06:12:19.712Z,1.50
2023-03-08T06:17:26.329Z,1.60
2023-03-08T06:22:30.436Z,1.60
2023-03-08T06:27:32.367Z,1.60
2023-03-08T06:32:37.654Z,1.70
2023-03-08T06:37:40.907Z,1.70
2023-03-08T06:42:43.287Z,1.80
2023-03-08T06:47:49.570Z,1.90
2023-03-08T06:52:51.627Z,2.00
2023-03-08T06:58:01.749Z,2.10
2023-03-08T07:03:03.663Z,2.30
2023-03-08T07:08:06.301Z,2.40
2023-03-08T07:13:08.030Z,2.40
2023-03-08T07:18:09.838Z,2.50
2023-03-08T07:23:11.636Z,2.50
2023-03-08T07:28:13.472Z,2.60
2023-03-08T07:33:15.631Z,2.60
2023-03-08T07:38:17.806Z,2.60
2023-03-08T07:43:19.554Z,2.70
2023-03-08T07:48:30.286Z,2.70
2023-03-08T07:53:33.113Z,2.80
2023-03-08T07:58:34.904Z,2.90
2023-03-08T08:03:38.280Z,2.90
2023-03-08T08:08:40.701Z,3.00
2023-03-08T08:13:42.892Z,3.20
2023-03-08T08:18:44.762Z,3.30
2023-03-08T08:23:46.919Z,3.40
2023-03-08T08:28:52.184Z,3.50
2023-03-08T08:33:53.957Z,3.60
2023-03-08T08:38:55.802Z,3.60
2023-03-08T08:43:59.032Z,3.70
2023-03-08T08:49:01.674Z,3.70
2023-03-08T08:54:03.928Z,3.80
2023-03-08T08:59:05.932Z,3.90
2023-03-08T09:04:07.743Z,4.10
2023-03-08T09:09:09.640Z,4.10
2023-03-08T09:14:11.487Z,4.20
2023-03-08T09:19:13.257Z,4.30
2023-03-08T09:24:16.859Z,4.30
2023-03-08T09:29:18.705Z,4.20
2023-03-08T09:34:20.645Z,4.20
2023-03-08T09:39:22.495Z,4.30
2023-03-08T09:44:50.342Z,4.20
2023-03-08T09:49:55.791Z,4.20
2023-03-08T09:55:01.698Z,4.20
2023-03-08T10:00:09.384Z,4.10
2023-03-08T10:05:21.948Z,4.20
2023-03-08T10:10:23.987Z,3.90
2023-03-08T10:15:28.147Z,3.90
2023-03-08T10:20:37.380Z,3.80
2023-03-08T10:25:39.683Z,3.70
2023-03-08T10:30:46.737Z,3.70
2023-03-08T10:36:02.345Z,3.60
2023-03-08T10:41:15.089Z,3.60
2023-03-08T10:46:30.202Z,3.50
2023-03-08T10:51:32.129Z,3.50
2023-03-08T10:56:40.910Z,3.30
2023-03-08T11:01:51.522Z,3.10
2023-03-08T11:06:53.296Z,3.00
2023-03-08T11:11:56.947Z,3.00
2023-03-08T11:17:30.708Z,2.80
2023-03-08T11:22:41.311Z,2.80
2023-03-08T11:28:20.652Z,2.70
2023-03-08T11:33:46.069Z,2.60
2023-03-08T11:39:12.483Z,2.60
2023-03-08T11:44:24.311Z,2.50
2023-03-08T11:50:05.791Z,2.40
2023-03-08T11:55:39.351Z,2.40
2023-03-08T12:00:43.547Z,2.60
2023-03-08T12:05:59.699Z,2.50
2023-03-08T12:11:19.275Z,2.60
2023-03-08T12:16:34.054Z,2.60
2023-03-08T12:21:49.060Z,2.60
2023-03-08T12:27:12.465Z,2.50
2023-03-08T12:32:17.135Z,2.50
2023-03-08T12:37:27.864Z,2.50
2023-03-08T12:42:35.997Z,2.40
2023-03-08T12:47:38.378Z,2.40
2023-03-08T12:52:40.355Z,2.40
2023-03-08T12:57:52.321Z,2.40
2023-03-08T13:03:39.052Z,2.50
2023-03-08T13:08:50.995Z,2.40
2023-03-08T13:13:57.282Z,2.50
2023-03-08T13:19:14.721Z,2.50
2023-03-08T13:24:21.176Z,2.60
2023-03-08T13:29:27.677Z,2.70
2023-03-08T13:34:32.928Z,2.70
2023-03-08T13:39:34.666Z,2.80
2023-03-08T13:44:37.096Z,2.90
2023-03-08T13:49:43.640Z,2.90
2023-03-08T13:54:50.495Z,2.90
2023-03-08T13:59:54.892Z,2.80
2023-03-08T14:04:58.228Z,2.80
2023-03-08T14:10:00.160Z,2.90
2023-03-08T14:15:04.981Z,2.80
2023-03-08T14:20:20.709Z,2.80
2023-03-08T14:25:29.790Z,2.80
2023-03-08T14:30:32.331Z,2.70
2023-03-08T14:35:38.446Z,2.80
2023-03-08T14:40:49.546Z,2.80
2023-03-08T14:45:55.683Z,2.80
2023-03-08T14:51:00.104Z,2.90
2023-03-08T14:56:14.113Z,2.90
2023-03-08T15:01:25.119Z,2.90
2023-03-08T15:06:30.389Z,3.00
2023-03-08T15:11:32.388Z,3.10
2023-03-08T15:16:34.597Z,3.10
2023-03-08T15:21:37.873Z,3.10
2023-03-08T15:26:39.592Z,3.20
2023-03-08T15:31:41.352Z,3.20
2023-03-08T15:36:43.110Z,3.30
2023-03-08T15:41:45.168Z,3.30
2023-03-08T15:46:46.995Z,3.40
2023-03-08T15:51:48.805Z,3.40
2023-03-08T15:56:50.655Z,3.40
2023-03-08T16:01:52.403Z,3.50
2023-03-08T16:06:54.326Z,3.50
2023-03-08T16:11:56.125Z,3.60
2023-03-08T16:16:57.958Z,3.60
2023-03-08T16:22:00.128Z,3.60
2023-03-08T16:27:04.446Z,3.70
2023-03-08T16:32:06.630Z,3.70
2023-03-08T16:37:08.444Z,3.70
2023-03-08T16:42:12.956Z,3.70
2023-03-08T16:47:14.936Z,3.80
2023-03-08T16:52:18.093Z,3.80
2023-03-08T16:57:21.610Z,3.80
2023-03-08T17:02:23.401Z,3.80
2023-03-08T17:07:25.143Z,3.80
2023-03-08T17:12:27.207Z,3.80
2023-03-08T17:17:29.016Z,3.80
2023-03-08T17:22:33.638Z,3.80
2023-03-08T17:27:35.452Z,4.00
2023-03-08T17:32:37.263Z,4.10
2023-03-08T17:37:41.591Z,4.10
2023-03-08T17:42:43.430Z,4.10
2023-03-08T17:47:45.913Z,4.00
2023-03-08T17:52:47.662Z,4.00
2023-03-08T17:57:49.651Z,4.00
2023-03-08T18:02:51.378Z,4.00
2023-03-08T18:07:53.169Z,4.00
2023-03-08T18:12:54.957Z,4.00
2023-03-08T18:17:56.696Z,3.90
2023-03-08T18:22:58.496Z,3.90
2023-03-08T18:28:00.402Z,3.90
2023-03-08T18:33:02.242Z,4.00
2023-03-08T18:38:04.056Z,4.00
2023-03-08T18:43:05.843Z,4.00
2023-03-08T18:48:07.616Z,4.10
2023-03-08T18:53:09.335Z,4.10
2023-03-08T18:58:11.156Z,4.10
2023-03-08T19:03:12.930Z,4.20
2023-03-08T19:08:15.278Z,4.20
2023-03-08T19:13:17.602Z,4.40
2023-03-08T19:18:23.533Z,4.40
2023-03-08T19:23:25.494Z,4.40
2023-03-08T19:28:27.425Z,4.30
2023-03-08T19:33:31.412Z,4.30
2023-03-08T19:38:33.717Z,4.30
2023-03-08T19:43:35.454Z,4.30
2023-03-08T19:48:37.277Z,4.40
2023-03-08T19:53:39.304Z,4.30
2023-03-08T19:58:41.144Z,4.40
2023-03-08T20:03:43.109Z,4.40
2023-03-08T20:08:45.091Z,4.40
2023-03-08T20:13:46.936Z,4.40
2023-03-08T20:18:49.535Z,4.40
2023-03-08T20:23:55.250Z,4.40
2023-03-08T20:28:58.066Z,4.40
2023-03-08T20:34:00.819Z,4.40
2023-03-08T20:39:02.980Z,4.50
2023-03-08T20:44:05.060Z,4.50
2023-03-08T20:49:06.838Z,4.60
2023-03-08T20:54:08.785Z,4.60
2023-03-08T20:59:10.950Z,4.70
2023-03-08T21:04:12.779Z,4.80
2023-03-08T21:09:15.283Z,4.80
2023-03-08T21:14:17.093Z,4.80
2023-03-08T21:19:23.960Z,4.80
2023-03-08T21:24:25.807Z,4.80
2023-03-08T21:29:28.951Z,4.80
2023-03-08T21:34:30.891Z,4.90
2023-03-08T21:39:32.849Z,4.90
2023-03-08T21:44:34.611Z,4.90
2023-03-08T21:49:36.513Z,4.90
2023-03-08T21:54:38.381Z,4.90
2023-03-08T21:59:40.213Z,5.00
2023-03-08T22:04:41.976Z,5.00
2023-03-08T22:09:43.697Z,5.00
2023-03-08T22:14:45.618Z,5.10
2023-03-08T22:19:47.438Z,5.10
2023-03-08T22:24:49.283Z,5.20
2023-03-08T22:29:51.571Z,5.20
2023-03-08T22:34:53.683Z,5.20
2023-03-08T22:39:55.915Z,5.20
2023-03-08T22:44:59.718Z,5.30
2023-03-08T22:50:01.558Z,5.40
2023-03-08T22:55:04.086Z,5.60
2023-03-08T23:00:14.181Z,5.70
2023-03-08T23:05:20.399Z,6.00
2023-03-08T23:10:23.273Z,6.30
2023-03-08T23:15:25.048Z,6.40
2023-03-08T23:20:26.913Z,6.30
2023-03-08T23:25:28.668Z,6.30
2023-03-08T23:30:30.427Z,6.30
2023-03-08T23:35:32.231Z,6.20
2023-03-08T23:40:34.008Z,6.20
2023-03-08T23:45:38.154Z,6.30
2023-03-08T23:50:40.366Z,6.20
2023-03-08T23:55:42.194Z,6.30
